Friday, February 23, 2018, 7:06 AM EST
Back to Local

KFVE, Northern Aroostook Regional

Location: Saint Agatha, ME, United States Lat: 47.283
Local Time: 7:06 AM EST (12:06 GMT) Lon: -68.3
Time Zone: US/Eastern Elev: 987 ft

Show me the last for .
Show Coded

Time T Td Feel RH Dir Speed Gust Alt SLP Vis Weather Sky Remarks
2018-02-23 06:53 2 -1 - 87 - Calm - 30.62 30.69 10 CLR 6-hr Min Temp (7am): 1.9°F
6-hr Max Temp (7am): 10.0°F
2018-02-23 05:53 4 0 -7 83 260° 6 - 30.63 30.70 10 CLR None
2018-02-23 04:53 4 0 -3 83 270° 3 - 30.63 30.69 10 CLR None
2018-02-23 03:53 2 0 -6 91 290° 3 - 30.63 30.69 10 CLR None
2018-02-23 02:53 8 3 1 79 280° 3 - 30.64 30.69 10 CLR None
2018-02-23 01:53 9 3 1 76 310° 5 - 30.64 30.70 10 CLR None
2018-02-23 00:53 10 3 - 72 - Calm - 30.65 30.70 10 CLR 6-hr Min Temp (1am): 8.1°F
6-hr Max Temp (1am): 14.0°F
2018-02-22 23:53 10 3 -2 72 310° 8 - 30.65 30.71 10 CLR 24-hr Min Temp (12am): 6.1°F
24-hr Max Temp (12am): 19.9°F
2018-02-22 22:53 10 3 -1 72 330° 7 - 30.62 30.68 10 CLR None
2018-02-22 21:53 12 1 4 60 330° 5 - 30.62 30.68 10 CLR None
2018-02-22 20:53 13 1 7 58 320° 3 - 30.61 30.67 10 CLR None
2018-02-22 19:53 14 0 4 52 310° 7 - 30.59 30.66 10 CLR None
2018-02-22 18:53 14 0 4 52 320° 7 - 30.58 30.65 10 CLR 6-hr Min Temp (7pm): 14.0°F
6-hr Max Temp (7pm): 19.9°F
2018-02-22 17:53 16 0 10 48 340° 3 - 30.58 30.64 10 CLR None
2018-02-22 16:53 19 2 11 46 310° 6 - 30.56 30.62 10 CLR None
2018-02-22 15:53 19 2 11 46 360° 6 - 30.55 30.61 10 CLR None
2018-02-22 14:53 19 2 8 46 350° 9 - 30.55 30.60 10 CLR None
2018-02-22 13:53 19 2 9 46 330° 8 - 30.55 30.61 10 CLR None
2018-02-22 12:53 19 1 9 44 330° 8 - 30.57 30.63 10 CLR 6-hr Min Temp (1pm): 6.1°F
6-hr Max Temp (1pm): 19.0°F
2018-02-22 11:53 17 0 10 46 Variable 5 - 30.60 30.65 10 CLR None
2018-02-22 10:53 15 0 2 50 320° 12 - 30.61 30.66 10 CLR None
2018-02-22 09:53 12 -1 -3 55 350° 13 - 30.61 30.66 10 CLR None
2018-02-22 08:53 10 -1 -7 60 340° 16 - 30.60 30.65 10 CLR None
2018-02-22 07:53 7 -1 -12 69 330° 17 - 30.59 30.64 10 CLR None

Support USWX by starting your Amazon purchase here.